Time;durP1;ratioP1;P1;durP2;ratioP2;P2;SDS_P1;SDS_P2;PMS_P1;PMS_P2;Temp;Humidity;BMP_temperature;BMP_pressure;BME280_temperature;BME280_humidity;BME280_pressure;Samples;Min_cycle;Max_cycle;Signal;HPM_P1;HPM_P2
2023/06/19 00:00:17;;;;;;;8.00;7.27;;;25.40;48.60;;;;;;5035860;28;20679;-68
2023/06/19 00:02:43;;;;;;;8.10;7.10;;;25.40;48.60;;;;;;5034852;28;20240;-68
2023/06/19 00:05:09;;;;;;;7.90;7.20;;;25.30;48.60;;;;;;5029801;28;20192;-68
2023/06/19 00:07:38;;;;;;;7.60;7.00;;;25.40;48.60;;;;;;5048626;28;20796;-68
2023/06/19 00:10:05;;;;;;;7.70;7.00;;;25.40;48.60;;;;;;5050272;28;20444;-68
2023/06/19 00:12:31;;;;;;;8.10;7.37;;;25.40;48.60;;;;;;5050958;28;20445;-68
2023/06/19 00:14:57;;;;;;;8.50;7.80;;;25.40;48.60;;;;;;5047565;28;20544;-68
2023/06/19 00:17:26;;;;;;;7.73;7.13;;;25.40;48.60;;;;;;5051301;28;20179;-68
2023/06/19 00:19:52;;;;;;;7.70;7.00;;;25.40;49.20;;;;;;5043902;28;20176;-68
2023/06/19 00:22:18;;;;;;;7.50;6.80;;;25.40;48.60;;;;;;5031320;28;20422;-68
2023/06/19 00:24:43;;;;;;;7.70;7.00;;;25.40;48.60;;;;;;5031275;28;20430;-68
2023/06/19 00:27:09;;;;;;;8.67;7.87;;;25.40;48.60;;;;;;5033219;28;20171;-68
2023/06/19 00:29:34;;;;;;;8.17;7.17;;;25.40;48.70;;;;;;5054375;28;20171;-68
2023/06/19 00:32:00;;;;;;;7.97;7.37;;;25.40;48.70;;;;;;5054753;28;20170;-68
2023/06/19 00:34:26;;;;;;;7.93;7.13;;;25.40;48.70;;;;;;5054541;28;20649;-69
2023/06/19 00:36:56;;;;;;;7.10;6.50;;;25.40;48.70;;;;;;5054600;28;20178;-68
2023/06/19 00:39:22;;;;;;;8.03;7.33;;;25.40;48.60;;;;;;5054003;28;20542;-68
2023/06/19 00:41:49;;;;;;;8.00;7.30;;;25.30;48.60;;;;;;5054525;28;20421;-68
2023/06/19 00:44:14;;;;;;;8.33;7.70;;;25.40;48.70;;;;;;5054477;28;20504;-68
2023/06/19 00:46:41;;;;;;;8.10;7.30;;;25.40;48.70;;;;;;5054626;28;20445;-68
2023/06/19 00:49:08;;;;;;;8.20;7.50;;;25.40;48.70;;;;;;5054674;28;20632;-69
2023/06/19 00:51:33;;;;;;;7.40;6.80;;;25.40;48.70;;;;;;5054183;28;20438;-68
2023/06/19 00:53:59;;;;;;;7.90;7.30;;;25.40;48.60;;;;;;5044859;28;20970;-68
2023/06/19 00:56:25;;;;;;;7.93;7.23;;;25.40;48.70;;;;;;5034834;28;20554;-69
2023/06/19 00:58:52;;;;;;;8.07;7.37;;;25.40;48.70;;;;;;5034709;28;20190;-68
2023/06/19 01:01:20;;;;;;;8.00;7.40;;;25.40;48.70;;;;;;5034272;28;20224;-68
2023/06/19 01:03:46;;;;;;;7.90;7.20;;;25.40;48.60;;;;;;5034199;28;20406;-68
2023/06/19 01:06:21;;;;;;;7.57;6.87;;;25.30;48.60;;;;;;5034105;28;20437;-69
2023/06/19 01:08:53;;;;;;;7.77;7.10;;;25.40;48.70;;;;;;5034163;28;20505;-68
2023/06/19 01:11:24;;;;;;;8.20;7.60;;;25.40;48.70;;;;;;5035419;28;20425;-68
2023/06/19 01:13:58;;;;;;;9.10;8.30;;;25.40;48.60;;;;;;5033981;28;20434;-69
2023/06/19 01:16:25;;;;;;;7.87;7.23;;;25.40;48.70;;;;;;5033998;28;20414;-68
2023/06/19 01:18:51;;;;;;;7.90;7.20;;;25.40;48.70;;;;;;5033986;28;20492;-69
2023/06/19 01:21:18;;;;;;;7.73;7.03;;;25.30;48.60;;;;;;5033910;28;20501;-69
2023/06/19 01:23:44;;;;;;;8.63;7.93;;;25.40;48.70;;;;;;5033891;28;20179;-69
2023/06/19 01:26:11;;;;;;;8.53;7.83;;;25.40;48.70;;;;;;5049904;28;20456;-69
2023/06/19 01:28:40;;;;;;;7.67;7.07;;;25.40;48.70;;;;;;5053682;28;20409;-68
2023/06/19 01:31:13;;;;;;;8.30;7.60;;;25.40;48.70;;;;;;5052219;28;20429;-68
2023/06/19 01:33:42;;;;;;;8.67;7.87;;;25.30;48.60;;;;;;5053595;28;20480;-68
2023/06/19 01:36:08;;;;;;;7.93;7.33;;;25.40;48.70;;;;;;5053502;28;20437;-69
2023/06/19 01:38:36;;;;;;;8.73;7.93;;;25.40;48.70;;;;;;5050440;28;20448;-68
2023/06/19 01:41:03;;;;;;;8.80;8.00;;;25.40;48.70;;;;;;5052543;28;20425;-68
2023/06/19 01:43:31;;;;;;;8.47;7.67;;;25.30;48.60;;;;;;5053416;28;20471;-68
2023/06/19 01:45:58;;;;;;;7.93;7.33;;;25.40;48.70;;;;;;5053277;28;20433;-68
2023/06/19 01:48:24;;;;;;;8.67;7.97;;;25.40;48.70;;;;;;5053216;28;20410;-68
2023/06/19 01:50:50;;;;;;;9.10;8.20;;;25.40;48.70;;;;;;5033351;28;20861;-69
2023/06/19 01:53:16;;;;;;;7.97;7.27;;;25.40;48.70;;;;;;5033525;28;20719;-69
2023/06/19 01:55:42;;;;;;;8.53;7.83;;;25.30;48.60;;;;;;5033467;28;20526;-68
2023/06/19 01:58:08;;;;;;;9.10;8.40;;;25.40;48.70;;;;;;5033219;28;20418;-68
2023/06/19 02:00:37;;;;;;;8.70;8.00;;;25.30;48.70;;;;;;5033134;28;20406;-68
2023/06/19 02:03:03;;;;;;;8.17;7.47;;;25.30;48.60;;;;;;5037164;28;20195;-69
2023/06/19 02:05:32;;;;;;;8.33;7.63;;;25.40;48.70;;;;;;5052865;28;20437;-68
2023/06/19 02:07:58;;;;;;;9.57;8.67;;;25.40;48.70;;;;;;5052919;28;20405;-69
2023/06/19 02:10:24;;;;;;;8.37;7.57;;;25.40;48.70;;;;;;5049110;28;20440;-68
2023/06/19 02:12:49;;;;;;;8.60;7.90;;;25.30;48.60;;;;;;5052749;28;20665;-68
2023/06/19 02:15:15;;;;;;;8.93;8.13;;;25.30;48.60;;;;;;5052645;28;20555;-68
2023/06/19 02:17:42;;;;;;;7.97;7.27;;;25.40;48.70;;;;;;5052764;28;20167;-68
2023/06/19 02:20:11;;;;;;;8.70;8.00;;;25.30;48.60;;;;;;5044343;28;20174;-68
2023/06/19 02:22:39;;;;;;;8.53;7.83;;;25.30;48.60;;;;;;5052577;28;20420;-68
2023/06/19 02:25:06;;;;;;;8.70;7.97;;;25.30;48.60;;;;;;5052536;28;20433;-68
2023/06/19 02:27:31;;;;;;;8.50;7.80;;;25.30;48.60;;;;;;5052511;28;20454;-68
2023/06/19 02:29:57;;;;;;;8.80;8.10;;;25.40;48.70;;;;;;5035185;28;20422;-69
2023/06/19 02:32:23;;;;;;;8.80;8.10;;;25.40;48.70;;;;;;5031254;28;20188;-69
2023/06/19 02:34:48;;;;;;;7.83;7.03;;;25.30;48.70;;;;;;5039252;28;20733;-69
2023/06/19 02:37:14;;;;;;;8.80;8.10;;;25.30;48.70;;;;;;5052373;28;20171;-69
2023/06/19 02:39:40;;;;;;;8.30;7.53;;;25.30;48.60;;;;;;5052296;28;20628;-68
2023/06/19 02:42:06;;;;;;;9.27;8.37;;;25.40;48.70;;;;;;5052269;28;20542;-67
2023/06/19 02:44:31;;;;;;;9.30;8.50;;;25.30;48.60;;;;;;5052400;28;20183;-68
2023/06/19 02:46:57;;;;;;;8.60;7.90;;;25.30;48.60;;;;;;5052307;28;20416;-68
2023/06/19 02:49:22;;;;;;;8.60;7.90;;;25.30;48.70;;;;;;5037635;28;20710;-69
2023/06/19 02:51:48;;;;;;;8.50;7.80;;;25.40;48.70;;;;;;5031450;28;20241;-68
2023/06/19 02:54:14;;;;;;;9.50;8.70;;;25.30;48.60;;;;;;5032238;28;20644;-68
2023/06/19 02:56:39;;;;;;;8.60;7.70;;;25.30;48.60;;;;;;5032117;28;20551;-69
2023/06/19 02:59:05;;;;;;;8.87;7.93;;;25.30;48.60;;;;;;5032482;28;20171;-68
2023/06/19 03:01:31;;;;;;;9.53;8.70;;;25.30;48.60;;;;;;5032100;28;20164;-68
2023/06/19 03:03:56;;;;;;;9.00;8.30;;;25.30;48.70;;;;;;5048388;28;20186;-67
2023/06/19 03:06:22;;;;;;;9.43;8.63;;;25.30;48.70;;;;;;5051837;28;20999;-68
2023/06/19 03:08:48;;;;;;;8.70;8.00;;;25.30;48.70;;;;;;5051923;28;20179;-69
2023/06/19 03:11:13;;;;;;;9.30;8.50;;;25.40;49.30;;;;;;5051886;28;20177;-68
2023/06/19 03:13:51;;;;;;;9.07;8.37;;;25.30;48.70;;;;;;5051807;28;20564;-68
2023/06/19 03:16:17;;;;;;;9.40;8.50;;;25.40;48.70;;;;;;5051862;28;20277;-68
2023/06/19 03:18:44;;;;;;;9.73;8.93;;;25.30;48.70;;;;;;5035249;28;20509;-69
2023/06/19 03:21:10;;;;;;;10.80;9.90;;;25.30;48.70;;;;;;5032469;28;20518;-68
2023/06/19 03:23:36;;;;;;;9.00;8.33;;;25.30;48.70;;;;;;5048631;28;20440;-68
2023/06/19 03:26:02;;;;;;;10.33;9.43;;;25.30;48.70;;;;;;5051707;28;21279;-69
2023/06/19 03:28:28;;;;;;;10.37;9.47;;;25.30;48.70;;;;;;5051929;28;20748;-67
2023/06/19 03:30:54;;;;;;;10.80;9.90;;;25.30;48.70;;;;;;5050872;28;20179;-67
2023/06/19 03:33:19;;;;;;;10.67;9.40;;;25.30;48.70;;;;;;5050141;28;20194;-69
2023/06/19 03:35:45;;;;;;;10.80;9.90;;;25.30;48.70;;;;;;5051585;28;20194;-68
2023/06/19 03:38:10;;;;;;;10.07;9.27;;;25.30;48.70;;;;;;5051697;28;20270;-67
2023/06/19 03:40:36;;;;;;;10.70;9.70;;;25.30;48.60;;;;;;5051686;28;20193;-69
2023/06/19 03:43:01;;;;;;;9.13;8.40;;;25.30;48.70;;;;;;5050891;28;20766;-68
2023/06/19 03:45:27;;;;;;;9.90;9.10;;;25.30;48.70;;;;;;5051603;28;20191;-69
2023/06/19 03:47:53;;;;;;;10.10;9.20;;;25.30;48.70;;;;;;5051653;28;20260;-69
2023/06/19 03:50:19;;;;;;;9.97;9.17;;;25.30;48.60;;;;;;5051502;28;20191;-67
2023/06/19 03:52:45;;;;;;;9.70;8.87;;;25.30;48.60;;;;;;5051491;28;20269;-69
2023/06/19 03:55:11;;;;;;;9.27;8.57;;;25.30;48.60;;;;;;5051468;28;20413;-68
2023/06/19 03:57:36;;;;;;;9.53;8.83;;;25.30;48.60;;;;;;5033705;28;20179;-69
2023/06/19 04:00:07;;;;;;;11.07;10.17;;;25.30;48.60;;;;;;5031903;28;20210;-68
2023/06/19 04:02:33;;;;;;;10.33;9.50;;;25.30;48.60;;;;;;5033634;28;20164;-68
2023/06/19 04:04:58;;;;;;;10.97;10.07;;;25.30;48.70;;;;;;5035304;28;20446;-68
2023/06/19 04:07:24;;;;;;;10.87;9.97;;;25.30;48.70;;;;;;5035283;28;20176;-67
2023/06/19 04:09:49;;;;;;;9.87;8.97;;;25.30;48.70;;;;;;5051553;28;20563;-68
2023/06/19 04:12:15;;;;;;;10.10;9.13;;;25.30;48.70;;;;;;5054997;28;20175;-68
2023/06/19 04:14:40;;;;;;;10.00;9.10;;;25.30;48.70;;;;;;5054799;28;20191;-68
2023/06/19 04:17:06;;;;;;;10.07;9.27;;;25.30;48.60;;;;;;5048045;28;20672;-68
2023/06/19 04:19:31;;;;;;;8.77;8.07;;;25.30;48.60;;;;;;5035063;28;20226;-68
2023/06/19 04:21:57;;;;;;;9.40;8.60;;;25.30;48.60;;;;;;5036291;28;20199;-68
2023/06/19 04:24:23;;;;;;;8.77;7.97;;;25.30;48.60;;;;;;5054804;28;20183;-68
2023/06/19 04:26:48;;;;;;;9.70;8.90;;;25.30;48.60;;;;;;5054871;28;20171;-69
2023/06/19 04:29:16;;;;;;;9.73;8.83;;;25.30;48.60;;;;;;5054783;28;20571;-68
2023/06/19 04:31:46;;;;;;;10.93;9.87;;;25.30;48.60;;;;;;5054725;28;20175;-69
2023/06/19 04:34:14;;;;;;;9.37;8.60;;;25.30;48.60;;;;;;5054635;28;20457;-68
2023/06/19 04:36:40;;;;;;;10.10;9.20;;;25.30;48.60;;;;;;5048947;28;20449;-68
2023/06/19 04:39:06;;;;;;;9.97;9.07;;;25.40;48.70;;;;;;5034762;28;20931;-67
2023/06/19 04:41:31;;;;;;;9.90;9.00;;;25.30;48.60;;;;;;5034924;28;20535;-68
2023/06/19 04:43:57;;;;;;;9.60;8.80;;;25.40;48.60;;;;;;5034624;28;20509;-68
2023/06/19 04:46:23;;;;;;;9.10;8.40;;;25.40;48.60;;;;;;5035650;28;20210;-68
2023/06/19 04:48:51;;;;;;;9.60;8.60;;;25.40;48.60;;;;;;5034523;28;20210;-68
2023/06/19 04:51:21;;;;;;;10.30;9.40;;;25.40;48.60;;;;;;5034445;28;20180;-68
2023/06/19 04:53:47;;;;;;;9.50;8.80;;;25.40;48.60;;;;;;5033590;28;20452;-68
2023/06/19 04:56:14;;;;;;;9.03;8.13;;;25.40;48.60;;;;;;5037350;28;20997;-68
2023/06/19 04:58:45;;;;;;;9.30;8.50;;;25.40;48.60;;;;;;5054254;28;20485;-68
2023/06/19 05:01:12;;;;;;;9.87;9.07;;;25.40;48.60;;;;;;5053056;28;20418;-69
2023/06/19 05:03:38;;;;;;;9.53;8.73;;;25.40;48.60;;;;;;5054117;28;20409;-69
2023/06/19 05:06:03;;;;;;;9.30;8.50;;;25.40;48.60;;;;;;5054018;28;20425;-68
2023/06/19 05:08:29;;;;;;;10.00;9.10;;;25.40;48.60;;;;;;5054110;28;20246;-68
2023/06/19 05:10:56;;;;;;;9.33;8.43;;;25.40;48.60;;;;;;5046940;28;20182;-69
2023/06/19 05:13:21;;;;;;;8.83;8.13;;;25.40;48.60;;;;;;5043004;28;20198;-68
2023/06/19 05:15:48;;;;;;;9.30;8.40;;;25.40;48.60;;;;;;5041992;28;20445;-67
2023/06/19 05:18:14;;;;;;;8.70;7.90;;;25.40;48.60;;;;;;5053977;28;20561;-70
2023/06/19 05:20:39;;;;;;;8.57;7.80;;;25.40;48.60;;;;;;5052554;28;20425;-68
2023/06/19 05:23:05;;;;;;;8.97;8.17;;;25.40;48.60;;;;;;5053828;28;20229;-68
2023/06/19 05:25:30;;;;;;;8.13;7.40;;;25.40;48.70;;;;;;5053654;28;20191;-67
2023/06/19 05:27:56;;;;;;;8.50;7.70;;;25.40;48.70;;;;;;5052482;28;20183;-68
2023/06/19 05:30:21;;;;;;;10.10;7.60;;;25.40;48.70;;;;;;5053716;28;20579;-69
2023/06/19 05:32:48;;;;;;;8.50;7.73;;;25.50;48.70;;;;;;5053540;28;20202;-69
2023/06/19 05:35:13;;;;;;;8.30;7.60;;;25.50;48.70;;;;;;5052247;28;20195;-70
2023/06/19 05:37:39;;;;;;;9.10;8.20;;;25.50;48.70;;;;;;5053644;28;20417;-68
2023/06/19 05:40:06;;;;;;;8.80;8.00;;;25.50;48.70;;;;;;5053464;28;20202;-68
2023/06/19 05:42:32;;;;;;;8.40;7.70;;;25.50;48.70;;;;;;5053534;28;20409;-68
2023/06/19 05:44:57;;;;;;;8.87;8.17;;;25.50;48.80;;;;;;5053331;28;20787;-67
2023/06/19 05:47:25;;;;;;;8.83;8.03;;;25.50;48.70;;;;;;5053482;28;20167;-69
2023/06/19 05:49:51;;;;;;;8.93;8.07;;;25.50;48.70;;;;;;5053412;28;20191;-67
2023/06/19 05:52:17;;;;;;;8.30;7.50;;;25.50;48.80;;;;;;5053174;28;20866;-69
2023/06/19 05:54:42;;;;;;;8.27;7.47;;;25.50;48.80;;;;;;5051829;28;20195;-67
2023/06/19 05:57:08;;;;;;;8.07;7.27;;;25.50;48.70;;;;;;5053392;28;20178;-68
2023/06/19 05:59:33;;;;;;;8.80;8.00;;;25.40;48.70;;;;;;5053288;28;20175;-68
2023/06/19 06:01:59;;;;;;;7.90;7.20;;;25.40;48.70;;;;;;5053079;28;20178;-67
2023/06/19 06:04:25;;;;;;;8.80;8.00;;;25.40;48.70;;;;;;5053177;28;20552;-68
2023/06/19 06:06:51;;;;;;;9.00;8.20;;;25.50;48.80;;;;;;5052914;28;20509;-68
2023/06/19 06:09:16;;;;;;;8.07;7.37;;;25.50;48.80;;;;;;5052893;28;20178;-67
2023/06/19 06:11:42;;;;;;;8.07;7.30;;;25.50;48.80;;;;;;5052914;28;20182;-68
2023/06/19 06:14:08;;;;;;;8.83;7.93;;;25.50;48.80;;;;;;5052988;28;20202;-68
2023/06/19 06:16:33;;;;;;;9.07;8.27;;;25.50;48.90;;;;;;5052659;28;20297;-68
2023/06/19 06:18:59;;;;;;;7.73;6.87;;;25.50;48.90;;;;;;5052939;28;20261;-68
2023/06/19 06:21:24;;;;;;;10.50;8.90;;;25.50;48.80;;;;;;5052686;28;20620;-67
2023/06/19 06:23:50;;;;;;;8.17;7.47;;;25.50;48.80;;;;;;5051266;28;20236;-68
2023/06/19 06:26:16;;;;;;;8.40;7.70;;;25.50;48.80;;;;;;5052284;28;20694;-67
2023/06/19 06:28:41;;;;;;;7.50;6.80;;;25.50;48.80;;;;;;5052631;28;20171;-68
2023/06/19 06:31:07;;;;;;;8.40;7.50;;;25.50;48.90;;;;;;5052562;28;20576;-68
2023/06/19 06:33:32;;;;;;;8.40;7.53;;;25.50;48.90;;;;;;5051162;28;20252;-68
2023/06/19 06:35:59;;;;;;;7.57;6.90;;;25.50;49.40;;;;;;5052735;28;20195;-68
2023/06/19 06:38:25;;;;;;;7.50;6.90;;;25.50;48.90;;;;;;5052413;28;20171;-69
2023/06/19 06:40:51;;;;;;;8.23;7.53;;;25.50;48.90;;;;;;5051984;28;20485;-69
2023/06/19 06:43:17;;;;;;;7.90;7.10;;;25.50;48.90;;;;;;5051809;28;20540;-68
2023/06/19 06:45:42;;;;;;;8.30;7.60;;;25.50;49.00;;;;;;5052313;28;20441;-68
2023/06/19 06:48:08;;;;;;;7.43;6.60;;;25.50;49.00;;;;;;5052360;28;20175;-68
2023/06/19 06:50:34;;;;;;;7.63;6.93;;;25.50;49.00;;;;;;5052091;28;20190;-68
2023/06/19 06:53:00;;;;;;;6.57;6.07;;;25.50;49.00;;;;;;5052356;28;20691;-68
2023/06/19 06:55:27;;;;;;;7.40;6.80;;;25.50;49.00;;;;;;5052435;28;20310;-69
2023/06/19 06:57:52;;;;;;;8.57;7.80;;;25.50;49.00;;;;;;5052071;28;20860;-69
2023/06/19 07:00:18;;;;;;;7.83;7.13;;;25.50;48.90;;;;;;5052275;28;20171;-68
2023/06/19 07:02:44;;;;;;;7.90;7.30;;;25.50;48.90;;;;;;5052341;28;20179;-67
2023/06/19 07:05:10;;;;;;;7.87;7.17;;;25.50;48.90;;;;;;5052187;28;20221;-68
2023/06/19 07:07:36;;;;;;;7.70;7.10;;;25.50;48.90;;;;;;5052045;28;20179;-68
2023/06/19 07:10:01;;;;;;;8.30;7.60;;;25.50;48.90;;;;;;5051956;28;20413;-68
2023/06/19 07:12:27;;;;;;;7.07;6.40;;;25.50;48.90;;;;;;5051891;28;20504;-68
2023/06/19 07:14:56;;;;;;;7.87;7.17;;;25.50;48.90;;;;;;5052001;28;20190;-68
2023/06/19 07:17:22;;;;;;;8.37;7.60;;;25.50;48.90;;;;;;5051999;28;20667;-68
2023/06/19 07:19:48;;;;;;;7.80;7.13;;;25.50;48.90;;;;;;5051874;28;20422;-68
2023/06/19 07:22:14;;;;;;;7.43;6.83;;;25.50;48.90;;;;;;5052035;28;20463;-68
2023/06/19 07:24:40;;;;;;;8.23;7.40;;;25.50;48.90;;;;;;5051789;28;20202;-68
2023/06/19 07:27:06;;;;;;;7.40;6.90;;;25.50;49.00;;;;;;5052015;28;20183;-69
2023/06/19 07:29:32;;;;;;;7.63;6.90;;;25.50;49.00;;;;;;5052145;28;20420;-69
2023/06/19 07:31:58;;;;;;;8.03;6.90;;;25.50;48.90;;;;;;5051822;28;20178;-67
2023/06/19 07:34:24;;;;;;;6.90;6.40;;;25.50;48.90;;;;;;5050613;28;20471;-69
2023/06/19 07:36:50;;;;;;;7.47;6.87;;;25.50;48.90;;;;;;5052721;28;20429;-68
2023/06/19 07:39:15;;;;;;;6.97;6.47;;;25.50;48.90;;;;;;5055798;28;20241;-69
2023/06/19 07:41:41;;;;;;;7.83;7.13;;;25.60;49.00;;;;;;5056178;28;20445;-68
2023/06/19 07:44:07;;;;;;;6.80;6.13;;;25.50;48.90;;;;;;5056012;28;20183;-67
2023/06/19 07:46:32;;;;;;;6.67;6.17;;;25.50;48.90;;;;;;5055615;28;20306;-68
2023/06/19 07:48:58;;;;;;;7.40;6.80;;;25.60;49.00;;;;;;5056023;28;20185;-68
2023/06/19 07:51:24;;;;;;;6.90;6.40;;;25.60;49.00;;;;;;5055596;28;20198;-68
2023/06/19 07:53:49;;;;;;;6.83;6.27;;;25.60;49.00;;;;;;5055539;28;20222;-68
2023/06/19 07:56:15;;;;;;;7.27;6.67;;;25.60;49.00;;;;;;5055440;28;20191;-67
2023/06/19 07:58:41;;;;;;;7.50;6.80;;;25.60;49.10;;;;;;5055510;28;20191;-68
2023/06/19 08:01:06;;;;;;;7.10;6.53;;;25.60;49.10;;;;;;5055358;28;20266;-68
2023/06/19 08:03:32;;;;;;;7.50;6.90;;;25.60;49.10;;;;;;5055591;28;20876;-68
2023/06/19 08:05:57;;;;;;;7.23;6.60;;;25.60;49.10;;;;;;5055326;28;20205;-68
2023/06/19 08:08:23;;;;;;;7.70;6.97;;;25.60;49.20;;;;;;5055092;28;20171;-68
2023/06/19 08:10:49;;;;;;;7.50;6.90;;;25.60;49.20;;;;;;5055227;28;20174;-69
2023/06/19 08:13:14;;;;;;;9.33;6.80;;;25.60;49.20;;;;;;5055040;28;20195;-69
2023/06/19 08:15:40;;;;;;;6.47;5.87;;;25.60;49.20;;;;;;5040857;28;20684;-68
2023/06/19 08:18:05;;;;;;;7.23;6.63;;;25.60;49.20;;;;;;5053962;28;20171;-69
2023/06/19 08:20:31;;;;;;;7.10;6.50;;;25.60;49.10;;;;;;5053913;28;20175;-70
2023/06/19 08:22:57;;;;;;;7.77;7.03;;;25.60;49.20;;;;;;5054419;28;20178;-69
2023/06/19 08:25:22;;;;;;;8.00;6.37;;;25.60;49.20;;;;;;5053884;28;20239;-68
2023/06/19 08:27:48;;;;;;;6.60;6.10;;;25.60;49.30;;;;;;5054987;28;20547;-68
2023/06/19 08:30:14;;;;;;;7.40;6.80;;;25.60;49.20;;;;;;5054891;28;20186;-69
2023/06/19 08:32:39;;;;;;;7.30;6.70;;;25.70;49.30;;;;;;5054752;28;20175;-69
2023/06/19 08:35:05;;;;;;;7.33;6.47;;;25.60;49.20;;;;;;5054996;28;20286;-69
2023/06/19 08:37:31;;;;;;;6.73;6.13;;;25.60;49.40;;;;;;5054805;28;20166;-69
2023/06/19 08:39:56;;;;;;;6.73;6.13;;;25.60;49.30;;;;;;5054819;28;20169;-67
2023/06/19 08:42:22;;;;;;;7.60;6.90;;;25.70;49.30;;;;;;5054737;28;20254;-69
2023/06/19 08:44:49;;;;;;;7.10;6.50;;;25.70;49.90;;;;;;5054557;28;20217;-70
2023/06/19 08:47:15;;;;;;;9.10;7.03;;;25.70;49.30;;;;;;5054632;28;20757;-68
2023/06/19 08:49:40;;;;;;;6.93;6.33;;;25.70;49.30;;;;;;5053034;28;20426;-68
2023/06/19 08:52:07;;;;;;;7.43;6.83;;;25.70;49.30;;;;;;5034901;28;20188;-67
2023/06/19 08:54:33;;;;;;;7.33;6.73;;;25.70;49.30;;;;;;5033992;28;20544;-67
2023/06/19 08:57:02;;;;;;;6.47;5.97;;;25.70;49.30;;;;;;5032798;28;20399;-67
2023/06/19 08:59:31;;;;;;;6.73;6.23;;;25.70;49.20;;;;;;5016719;28;20202;-67
2023/06/19 09:01:57;;;;;;;7.40;6.80;;;25.70;49.20;;;;;;5034539;28;20410;-68
2023/06/19 09:04:27;;;;;;;7.47;6.87;;;25.70;49.20;;;;;;5034594;28;20865;-70
2023/06/19 09:06:58;;;;;;;7.03;6.43;;;25.80;49.30;;;;;;5034334;28;20403;-69
2023/06/19 09:09:25;;;;;;;6.23;5.73;;;25.70;49.20;;;;;;5034450;28;20425;-70
2023/06/19 09:11:59;;;;;;;6.13;5.63;;;25.70;49.20;;;;;;5041210;28;20520;-69
2023/06/19 09:14:38;;;;;;;6.53;6.00;;;25.80;49.20;;;;;;5053745;28;20823;-69
2023/06/19 09:17:06;;;;;;;6.60;5.97;;;25.70;49.20;;;;;;5052193;28;20386;-67
2023/06/19 09:19:34;;;;;;;7.17;6.57;;;25.80;49.30;;;;;;5052335;28;20956;-68
2023/06/19 09:22:05;;;;;;;7.10;6.50;;;25.70;49.20;;;;;;5052101;28;20512;-68
2023/06/19 09:24:38;;;;;;;5.93;5.50;;;25.80;49.20;;;;;;5052097;28;20412;-69
2023/06/19 09:27:13;;;;;;;7.00;6.40;;;25.80;49.20;;;;;;5053774;28;20413;-69
2023/06/19 09:29:43;;;;;;;6.67;6.07;;;25.70;49.10;;;;;;5053965;28;20401;-67
2023/06/19 09:32:18;;;;;;;11.23;6.63;;;25.80;49.30;;;;;;5052374;28;20421;-68
2023/06/19 09:34:44;;;;;;;7.83;7.13;;;25.80;49.20;;;;;;5053624;28;20456;-69
2023/06/19 09:37:10;;;;;;;6.30;5.80;;;25.80;49.20;;;;;;5053828;28;20459;-68
2023/06/19 09:39:40;;;;;;;6.13;5.63;;;25.80;49.20;;;;;;5053727;28;20165;-67
2023/06/19 09:42:09;;;;;;;6.47;5.87;;;25.80;49.20;;;;;;5053447;28;20409;-68
2023/06/19 09:44:42;;;;;;;6.20;5.70;;;25.80;49.20;;;;;;5053673;28;20413;-67
2023/06/19 09:47:20;;;;;;;6.30;5.80;;;25.80;49.20;;;;;;5053464;28;20409;-68
2023/06/19 09:49:50;;;;;;;7.20;6.50;;;25.80;49.20;;;;;;5053267;28;20429;-69
2023/06/19 09:52:16;;;;;;;6.47;5.93;;;25.80;49.80;;;;;;5053494;28;20398;-67
2023/06/19 09:54:43;;;;;;;6.20;5.70;;;25.80;49.20;;;;;;5053473;28;20489;-67
2023/06/19 09:57:10;;;;;;;6.00;5.60;;;25.80;49.20;;;;;;5053230;28;20420;-67
2023/06/19 09:59:38;;;;;;;5.90;5.40;;;25.80;49.20;;;;;;5052903;28;20422;-67
2023/06/19 10:02:06;;;;;;;7.33;6.67;;;25.70;49.20;;;;;;5053111;28;20474;-67
2023/06/19 10:04:45;;;;;;;6.50;6.00;;;25.80;49.20;;;;;;5053232;28;20402;-67
2023/06/19 10:07:22;;;;;;;5.93;5.47;;;25.80;49.30;;;;;;5053331;28;20398;-68
2023/06/19 10:10:04;;;;;;;6.77;6.20;;;25.80;49.30;;;;;;5053088;28;20495;-67
2023/06/19 10:12:41;;;;;;;6.03;5.40;;;25.80;49.30;;;;;;5051739;28;20500;-67
2023/06/19 10:15:14;;;;;;;6.70;6.10;;;25.80;49.30;;;;;;5053289;28;20417;-69
2023/06/19 10:17:47;;;;;;;6.77;6.17;;;25.80;49.30;;;;;;5053265;28;20440;-68
2023/06/19 10:20:32;;;;;;;5.53;5.13;;;25.80;49.30;;;;;;5052848;28;20428;-67
2023/06/19 10:23:07;;;;;;;6.63;6.10;;;25.80;49.30;;;;;;5053001;28;20405;-68
2023/06/19 10:25:38;;;;;;;6.20;5.70;;;25.80;49.30;;;;;;5052690;28;20807;-68
2023/06/19 10:28:07;;;;;;;6.10;5.60;;;25.80;49.30;;;;;;5052749;28;20504;-68
2023/06/19 10:30:34;;;;;;;5.53;5.13;;;25.80;49.30;;;;;;5052637;28;20409;-67
2023/06/19 10:33:03;;;;;;;5.87;5.40;;;25.80;49.90;;;;;;5052378;28;20455;-68
2023/06/19 10:35:37;;;;;;;6.33;5.77;;;25.80;49.30;;;;;;5052692;28;20776;-68
2023/06/19 10:38:03;;;;;;;6.23;5.73;;;25.80;49.30;;;;;;5052946;28;20389;-68
2023/06/19 10:40:29;;;;;;;5.80;5.30;;;25.80;49.30;;;;;;5052301;28;20410;-68
2023/06/19 10:42:54;;;;;;;6.40;5.63;;;25.80;49.30;;;;;;5052395;28;20544;-69
2023/06/19 10:45:21;;;;;;;6.23;5.73;;;25.80;49.30;;;;;;5052264;28;20679;-67
2023/06/19 10:47:46;;;;;;;5.87;5.40;;;25.80;49.40;;;;;;5052270;28;20167;-67
2023/06/19 10:50:15;;;;;;;6.10;5.60;;;25.80;49.30;;;;;;5052245;28;20452;-68
2023/06/19 10:52:43;;;;;;;6.43;5.93;;;25.80;49.30;;;;;;5052118;28;20603;-69
2023/06/19 10:55:09;;;;;;;5.87;5.37;;;25.80;49.30;;;;;;5052262;28;20425;-69
2023/06/19 10:57:35;;;;;;;6.23;5.70;;;25.80;49.90;;;;;;5051175;28;20527;-68
2023/06/19 11:00:01;;;;;;;6.07;5.57;;;25.80;49.30;;;;;;5052282;28;20500;-68
2023/06/19 11:02:26;;;;;;;5.43;5.03;;;25.80;49.30;;;;;;5052071;28;20163;-68
2023/06/19 11:04:54;;;;;;;5.70;5.30;;;25.80;49.30;;;;;;5052090;28;20199;-69
2023/06/19 11:07:20;;;;;;;5.77;5.27;;;25.80;49.30;;;;;;5052247;28;20179;-68
2023/06/19 11:09:45;;;;;;;6.13;5.53;;;25.80;49.40;;;;;;5051980;28;20413;-68
2023/06/19 11:12:11;;;;;;;6.27;5.77;;;25.80;49.30;;;;;;5051694;28;20181;-67
2023/06/19 11:14:39;;;;;;;6.40;5.80;;;25.80;49.40;;;;;;5050481;28;20202;-68
2023/06/19 11:17:06;;;;;;;6.00;5.50;;;25.80;49.40;;;;;;5052490;28;20410;-68
2023/06/19 11:19:33;;;;;;;5.67;5.17;;;25.80;49.40;;;;;;5052097;28;20410;-69
2023/06/19 11:22:03;;;;;;;5.20;4.80;;;25.80;49.40;;;;;;5052233;28;20467;-67
2023/06/19 11:24:29;;;;;;;5.30;4.87;;;25.80;49.40;;;;;;5051768;28;20472;-68
2023/06/19 11:26:58;;;;;;;5.67;5.17;;;25.80;49.40;;;;;;5051865;28;20418;-67
2023/06/19 11:29:25;;;;;;;5.80;5.30;;;25.80;49.40;;;;;;5051802;28;20417;-69
2023/06/19 11:31:54;;;;;;;5.13;4.70;;;25.80;49.40;;;;;;5051837;28;20409;-68
2023/06/19 11:34:19;;;;;;;5.90;5.50;;;25.80;49.40;;;;;;5051930;28;20882;-67
2023/06/19 11:36:45;;;;;;;5.33;4.87;;;25.80;49.40;;;;;;5050425;28;20513;-68
2023/06/19 11:39:13;;;;;;;5.57;5.17;;;25.80;49.40;;;;;;5050488;28;20221;-69
2023/06/19 11:41:39;;;;;;;5.13;4.73;;;25.80;49.40;;;;;;5051770;28;20406;-67
2023/06/19 11:44:06;;;;;;;5.43;5.03;;;25.80;49.40;;;;;;5051658;28;20812;-67
2023/06/19 11:46:33;;;;;;;5.60;5.10;;;25.80;49.40;;;;;;5052105;28;20734;-69
2023/06/19 11:49:12;;;;;;;5.20;4.80;;;25.80;49.40;;;;;;5051763;28;20903;-66
2023/06/19 11:51:37;;;;;;;5.20;4.80;;;25.80;49.40;;;;;;5051485;28;20425;-69
2023/06/19 11:54:06;;;;;;;5.90;5.40;;;25.80;49.40;;;;;;5051565;28;20542;-68
2023/06/19 11:56:32;;;;;;;5.20;4.80;;;25.80;49.40;;;;;;5051137;28;20214;-68
2023/06/19 11:58:57;;;;;;;5.70;5.20;;;25.80;49.40;;;;;;5051507;28;20413;-67
2023/06/19 12:01:23;;;;;;;5.53;5.13;;;25.80;49.50;;;;;;5050321;28;20171;-67
2023/06/19 12:03:48;;;;;;;5.47;5.07;;;25.80;49.50;;;;;;5051575;28;20171;-68
2023/06/19 12:06:16;;;;;;;5.30;4.90;;;25.80;49.50;;;;;;5051914;28;20194;-69
2023/06/19 12:08:42;;;;;;;5.23;4.83;;;25.80;49.50;;;;;;5051464;28;20178;-69
2023/06/19 12:11:09;;;;;;;5.00;4.60;;;25.80;49.50;;;;;;5051312;28;20926;-68
2023/06/19 12:13:34;;;;;;;5.10;4.70;;;25.80;49.50;;;;;;5048761;28;20195;-68
2023/06/19 12:16:00;;;;;;;5.93;5.43;;;25.80;49.50;;;;;;5049984;28;20444;-67
2023/06/19 12:18:26;;;;;;;5.90;5.30;;;25.80;49.50;;;;;;5051402;28;20174;-67
2023/06/19 12:20:51;;;;;;;6.07;5.47;;;25.90;49.60;;;;;;5051412;28;20179;-69
2023/06/19 12:23:17;;;;;;;5.93;5.33;;;25.90;49.60;;;;;;5052619;28;20258;-68
2023/06/19 12:25:43;;;;;;;6.97;6.27;;;25.90;49.60;;;;;;5054905;28;20603;-68
2023/06/19 12:28:09;;;;;;;6.73;5.60;;;25.80;49.60;;;;;;5054725;28;20182;-68
2023/06/19 12:30:35;;;;;;;8.57;6.40;;;25.80;50.10;;;;;;5054910;28;20405;-68
2023/06/19 12:33:03;;;;;;;7.63;6.63;;;25.90;49.60;;;;;;5055032;28;20456;-68
2023/06/19 12:35:29;;;;;;;6.83;5.90;;;25.90;49.70;;;;;;5055147;28;20424;-67
2023/06/19 12:37:54;;;;;;;7.53;6.83;;;25.90;49.70;;;;;;5054842;28;20496;-69
2023/06/19 12:40:20;;;;;;;10.30;7.20;;;25.90;49.70;;;;;;5053400;28;20680;-68
2023/06/19 12:42:46;;;;;;;8.70;7.80;;;25.90;49.70;;;;;;5053419;28;20179;-67